Time;durP1;ratioP1;P1;durP2;ratioP2;P2;SDS_P1;SDS_P2;PMS_P1;PMS_P2;Temp;Humidity;BMP_temperature;BMP_pressure;BME280_temperature;BME280_humidity;BME280_pressure;Samples;Min_cycle;Max_cycle;Signal;HPM_P1;HPM_P2
2022/05/09 00:01:40;;;;;;;25.90;19.27;;;9.60;99.90;;;;;;5116877;28;20168;-81
2022/05/09 00:04:05;;;;;;;22.77;18.07;;;9.60;99.90;;;;;;5116483;28;20197;-82
2022/05/09 00:06:31;;;;;;;22.60;17.83;;;9.60;99.90;;;;;;5116791;28;20266;-81
2022/05/09 00:08:57;;;;;;;27.33;19.53;;;9.60;99.90;;;;;;5117934;28;20655;-81
2022/05/09 00:11:23;;;;;;;26.00;19.67;;;9.50;99.90;;;;;;5116566;28;20172;-81
2022/05/09 00:13:49;;;;;;;27.83;19.00;;;9.50;99.90;;;;;;5117465;28;20685;-81
2022/05/09 00:16:14;;;;;;;25.53;18.27;;;9.40;99.90;;;;;;5116632;28;20175;-82
2022/05/09 00:18:40;;;;;;;26.53;18.53;;;9.40;99.90;;;;;;5118692;28;20216;-81
2022/05/09 00:21:06;;;;;;;24.93;17.20;;;9.30;99.90;;;;;;5124961;28;20187;-81
2022/05/09 00:23:32;;;;;;;24.33;17.30;;;9.30;99.90;;;;;;5132355;28;20188;-81
2022/05/09 00:25:58;;;;;;;24.90;17.90;;;9.30;99.90;;;;;;5128024;28;20178;-81
2022/05/09 00:28:25;;;;;;;23.27;18.23;;;;;;;;;;5129863;28;20179;-81
2022/05/09 00:30:51;;;;;;;23.30;17.57;;;9.20;99.90;;;;;;5132978;28;20180;-81
2022/05/09 00:33:17;;;;;;;24.67;18.20;;;9.10;99.90;;;;;;5125309;28;20668;-81
2022/05/09 00:35:44;;;;;;;21.87;16.90;;;9.10;99.90;;;;;;5115980;28;20542;-81
2022/05/09 00:38:10;;;;;;;21.57;17.13;;;9.10;99.90;;;;;;5117521;28;20214;-81
2022/05/09 00:40:37;;;;;;;23.33;17.17;;;9.00;99.90;;;;;;5117495;28;20706;-82
2022/05/09 00:43:03;;;;;;;23.63;18.23;;;9.00;99.90;;;;;;5119570;28;20290;-81
2022/05/09 00:45:29;;;;;;;21.50;16.03;;;;;;;;;;5119854;28;20205;-81
2022/05/09 00:47:55;;;;;;;19.33;16.40;;;8.90;99.90;;;;;;5120175;28;20239;-81
2022/05/09 00:50:29;;;;;;;18.93;15.73;;;8.90;99.90;;;;;;5119698;28;20202;-81
2022/05/09 00:53:01;;;;;;;22.97;17.03;;;8.80;99.90;;;;;;5121023;28;20569;-81
2022/05/09 00:55:29;;;;;;;18.67;15.07;;;8.80;99.90;;;;;;5119677;28;20247;-81
2022/05/09 00:58:20;;;;;;;17.43;15.07;;;8.80;99.90;;;;;;5119244;28;20575;-81
2022/05/09 01:00:46;;;;;;;20.07;15.27;;;8.80;99.90;;;;;;5119497;28;20236;-81
2022/05/09 01:03:23;;;;;;;18.77;15.67;;;8.80;99.90;;;;;;5119096;28;20225;-81
2022/05/09 01:05:52;;;;;;;21.80;16.37;;;8.70;99.90;;;;;;5119532;28;20196;-81
2022/05/09 01:08:19;;;;;;;23.30;16.37;;;8.70;99.90;;;;;;5120877;28;20173;-81
2022/05/09 01:10:47;;;;;;;18.70;14.33;;;8.60;99.90;;;;;;5119254;28;20182;-81
2022/05/09 01:13:15;;;;;;;21.83;16.70;;;8.60;99.90;;;;;;5119745;28;20696;-81
2022/05/09 01:15:47;;;;;;;18.60;15.10;;;8.60;99.90;;;;;;5119109;28;20180;-81
2022/05/09 01:18:16;;;;;;;19.07;14.53;;;;;;;;;;5120347;28;20195;-81
2022/05/09 01:20:42;;;;;;;20.67;15.67;;;8.50;99.90;;;;;;5118516;28;20428;-81
2022/05/09 01:23:10;;;;;;;20.27;15.30;;;8.50;99.90;;;;;;5118799;28;20671;-81
2022/05/09 01:25:36;;;;;;;18.63;14.87;;;8.50;99.90;;;;;;5118856;28;20228;-81
2022/05/09 01:28:02;;;;;;;21.70;16.70;;;8.50;99.90;;;;;;5119742;28;20175;-81
2022/05/09 01:30:40;;;;;;;19.83;15.43;;;8.40;99.90;;;;;;5119228;28;20191;-81
2022/05/09 01:33:12;;;;;;;20.87;15.23;;;8.40;99.90;;;;;;5119577;28;20192;-81
2022/05/09 01:35:48;;;;;;;18.83;15.40;;;8.40;99.90;;;;;;5118379;28;20163;-81
2022/05/09 01:38:25;;;;;;;18.07;15.20;;;8.40;99.90;;;;;;5118111;28;20202;-81
2022/05/09 01:40:51;;;;;;;23.07;15.63;;;8.40;99.90;;;;;;5118903;27;20162;-81
2022/05/09 01:43:44;;;;;;;20.73;16.20;;;8.30;99.90;;;;;;5118146;28;20187;-81
2022/05/09 01:46:16;;;;;;;19.17;15.03;;;8.30;99.90;;;;;;5116336;28;20159;-81
2022/05/09 01:51:27;;;;;;;18.97;14.40;;;8.30;99.90;;;;;;5120392;28;20523;-81
2022/05/09 01:53:53;;;;;;;17.77;14.60;;;8.20;99.90;;;;;;5120015;28;20198;-81
2022/05/09 01:56:21;;;;;;;18.57;15.27;;;8.20;99.90;;;;;;5120022;28;20413;-82
2022/05/09 01:58:47;;;;;;;18.83;15.30;;;8.20;99.90;;;;;;5119816;28;20207;-82
2022/05/09 02:01:12;;;;;;;19.03;15.03;;;8.20;99.90;;;;;;5118723;28;20179;-81
2022/05/09 02:03:39;;;;;;;19.93;15.90;;;;;;;;;;5118470;28;20222;-81
2022/05/09 02:06:07;;;;;;;19.20;15.43;;;8.20;99.90;;;;;;5118821;28;20171;-81
2022/05/09 02:08:33;;;;;;;19.53;14.13;;;;;;;;;;5118442;28;20312;-81
2022/05/09 02:10:59;;;;;;;19.27;15.00;;;;;;;;;;5127242;28;20409;-81
2022/05/09 02:13:25;;;;;;;19.33;15.67;;;;;;;;;;5119623;28;20739;-81
2022/05/09 02:15:51;;;;;;;24.87;17.87;;;8.00;99.90;;;;;;5117779;28;20181;-82
2022/05/09 02:18:17;;;;;;;20.93;17.53;;;;;;;;;;5118265;28;20298;-81
2022/05/09 02:20:43;;;;;;;23.60;17.10;;;8.00;99.90;;;;;;5119241;28;20172;-82
2022/05/09 02:23:09;;;;;;;24.40;17.03;;;;;;;;;;5119743;28;20194;-81
2022/05/09 02:25:36;;;;;;;20.03;15.90;;;8.00;99.90;;;;;;5117759;28;20203;-81
2022/05/09 02:28:06;;;;;;;19.03;15.30;;;7.90;99.90;;;;;;5117978;28;20179;-81
2022/05/09 02:30:32;;;;;;;18.33;15.77;;;7.90;99.90;;;;;;5118052;28;20198;-82
2022/05/09 02:32:58;;;;;;;21.50;16.13;;;;;;;;;;5119363;28;20191;-82
2022/05/09 02:35:24;;;;;;;18.53;15.87;;;7.90;99.90;;;;;;5119360;28;20455;-81
2022/05/09 02:37:52;;;;;;;21.20;15.77;;;8.00;99.90;;;;;;5117527;28;20203;-81
2022/05/09 02:40:18;;;;;;;18.87;14.70;;;8.00;99.90;;;;;;5118573;28;20163;-82
2022/05/09 02:42:44;;;;;;;20.87;16.37;;;8.00;99.90;;;;;;5118868;28;20195;-81
2022/05/09 02:45:11;;;;;;;22.47;14.93;;;8.10;99.90;;;;;;5117345;28;20182;-81
2022/05/09 02:47:36;;;;;;;20.23;15.13;;;8.00;99.90;;;;;;5117825;28;20182;-81
2022/05/09 02:50:03;;;;;;;18.87;15.83;;;8.10;99.90;;;;;;5118408;28;20164;-81
2022/05/09 02:52:29;;;;;;;19.03;16.03;;;8.10;99.90;;;;;;5117230;28;20534;-81
2022/05/09 02:54:54;;;;;;;19.07;15.47;;;8.10;99.90;;;;;;5119089;28;20669;-81
2022/05/09 02:57:20;;;;;;;23.23;16.13;;;8.00;99.90;;;;;;5118389;28;20187;-81
2022/05/09 02:59:46;;;;;;;21.17;15.97;;;;;;;;;;5119184;28;20191;-81
2022/05/09 03:02:11;;;;;;;18.87;15.47;;;8.00;99.90;;;;;;5117239;28;20180;-81
2022/05/09 03:04:40;;;;;;;20.47;15.70;;;7.90;99.90;;;;;;5117417;28;20180;-81
2022/05/09 03:07:14;;;;;;;21.73;14.10;;;7.90;99.90;;;;;;5117656;28;20176;-81
2022/05/09 03:09:42;;;;;;;23.57;16.57;;;7.90;99.90;;;;;;5119087;28;20401;-81
2022/05/09 03:12:09;;;;;;;24.87;17.33;;;;;;;;;;5117222;28;20421;-81
2022/05/09 03:14:36;;;;;;;25.40;18.07;;;7.90;99.90;;;;;;5118584;28;20543;-82
2022/05/09 03:17:03;;;;;;;29.70;20.60;;;7.90;99.90;;;;;;5119057;28;20425;-81
2022/05/09 03:19:30;;;;;;;30.53;20.60;;;;;;;;;;5117881;28;20235;-81
2022/05/09 03:21:55;;;;;;;31.40;22.30;;;7.90;99.90;;;;;;5118472;28;20501;-82
2022/05/09 03:24:21;;;;;;;28.33;19.97;;;7.90;99.90;;;;;;5116659;28;20627;-81
2022/05/09 03:26:47;;;;;;;22.83;18.13;;;7.90;99.90;;;;;;5117193;28;20175;-81
2022/05/09 03:29:14;;;;;;;28.07;18.17;;;7.80;99.90;;;;;;5119157;28;20179;-82
2022/05/09 03:31:39;;;;;;;25.20;17.97;;;7.70;99.90;;;;;;5117534;28;20617;-82
2022/05/09 03:34:05;;;;;;;22.27;16.93;;;7.70;99.90;;;;;;5118291;28;20246;-81
2022/05/09 07:14:47;;;;;;;19.20;16.03;;;13.00;99.90;;;;;;5116088;27;20937;-81
2022/05/09 07:17:12;;;;;;;18.03;16.07;;;13.00;99.90;;;;;;5115772;28;20170;-81
2022/05/09 07:19:38;;;;;;;20.67;15.80;;;13.00;99.90;;;;;;5114933;28;20633;-81
2022/05/09 07:22:04;;;;;;;19.30;14.70;;;12.90;99.90;;;;;;5097107;28;20202;-82
2022/05/09 07:24:29;;;;;;;17.90;15.10;;;12.90;99.90;;;;;;5134854;28;20202;-82
2022/05/09 07:26:56;;;;;;;18.57;14.80;;;13.00;99.90;;;;;;5117871;28;20516;-81
2022/05/09 07:29:21;;;;;;;18.57;16.17;;;13.10;99.90;;;;;;5117158;28;20518;-81
2022/05/09 07:31:47;;;;;;;18.77;15.90;;;13.10;99.90;;;;;;5123435;28;20179;-82
2022/05/09 07:34:13;;;;;;;17.93;15.63;;;13.10;99.90;;;;;;5156997;27;20232;-81
2022/05/09 07:36:39;;;;;;;19.23;15.03;;;13.30;99.90;;;;;;5142840;28;20183;-81
2022/05/09 07:39:05;;;;;;;17.33;15.40;;;13.40;99.90;;;;;;5119469;28;20676;-81
2022/05/09 07:41:31;;;;;;;24.27;15.23;;;13.50;99.90;;;;;;5137371;28;20190;-81
2022/05/09 07:43:57;;;;;;;18.87;15.50;;;13.70;99.90;;;;;;5119192;28;20282;-82
2022/05/09 07:46:23;;;;;;;19.93;15.30;;;13.80;99.90;;;;;;5126623;28;20540;-81
2022/05/09 07:48:49;;;;;;;18.50;14.67;;;13.80;99.90;;;;;;5121034;28;20175;-81
2022/05/09 07:51:16;;;;;;;17.20;15.43;;;13.70;99.90;;;;;;5144342;28;20179;-81
2022/05/09 07:53:42;;;;;;;17.87;14.97;;;13.70;99.90;;;;;;5118857;28;20207;-81
2022/05/09 07:56:07;;;;;;;17.47;14.90;;;13.60;99.90;;;;;;5132462;28;20214;-83
2022/05/09 07:58:34;;;;;;;14.70;13.07;;;13.90;99.90;;;;;;5117090;28;20178;-82
2022/05/09 08:01:02;;;;;;;16.77;13.17;;;14.40;99.90;;;;;;5135490;28;20616;-81
2022/05/09 08:03:30;;;;;;;14.43;12.93;;;14.90;99.90;;;;;;5135072;28;20202;-81
2022/05/09 08:05:59;;;;;;;13.87;12.37;;;15.70;99.90;;;;;;5116545;28;20212;-82
2022/05/09 08:08:28;;;;;;;13.80;12.40;;;15.70;99.90;;;;;;5117144;28;20190;-81
2022/05/09 08:10:56;;;;;;;12.37;11.07;;;16.20;99.90;;;;;;5116381;28;20186;-82
2022/05/09 08:13:22;;;;;;;12.00;10.80;;;16.30;99.90;;;;;;5116259;28;20215;-82
2022/05/09 08:15:49;;;;;;;12.90;10.30;;;16.20;99.90;;;;;;5116585;28;20171;-82
2022/05/09 08:18:15;;;;;;;10.43;9.10;;;17.10;99.90;;;;;;5115716;28;20181;-82
2022/05/09 08:20:45;;;;;;;14.60;10.37;;;17.90;99.90;;;;;;5134570;28;20208;-82
2022/05/09 08:23:15;;;;;;;11.83;10.63;;;18.60;99.90;;;;;;5134779;28;20190;-82
2022/05/09 08:25:43;;;;;;;12.90;10.90;;;18.40;99.90;;;;;;5108263;28;20183;-81
2022/05/09 08:28:10;;;;;;;13.97;10.00;;;18.00;99.90;;;;;;5122411;28;20176;-81
2022/05/09 08:30:37;;;;;;;11.93;10.57;;;18.20;99.90;;;;;;5121758;28;20258;-81
2022/05/09 08:33:14;;;;;;;12.40;10.60;;;19.00;99.90;;;;;;5120810;28;20263;-81
2022/05/09 08:35:41;;;;;;;15.07;11.67;;;20.20;99.90;;;;;;5121836;28;20171;-81
2022/05/09 08:38:07;;;;;;;11.70;10.50;;;20.90;99.90;;;;;;5120971;28;20173;-82
2022/05/09 08:40:36;;;;;;;11.50;10.40;;;21.10;99.90;;;;;;5102112;28;20544;-81
2022/05/09 08:43:16;;;;;;;10.70;9.70;;;20.80;99.90;;;;;;5120699;28;20187;-82
2022/05/09 08:45:50;;;;;;;11.73;10.60;;;19.10;99.90;;;;;;5120597;28;20169;-81
2022/05/09 08:48:58;;;;;;;11.27;10.17;;;19.00;99.90;;;;;;5100897;28;20198;-81
2022/05/09 08:51:33;;;;;;;9.70;8.80;;;19.80;99.90;;;;;;5091955;28;20188;-81
2022/05/09 08:54:03;;;;;;;10.23;9.33;;;19.70;99.90;;;;;;5101308;28;20732;-83
2022/05/09 08:56:29;;;;;;;9.87;8.97;;;20.00;99.90;;;;;;5101871;28;20682;-81
2022/05/09 08:59:01;;;;;;;11.23;8.93;;;19.90;99.90;;;;;;5119387;28;20167;-81
2022/05/09 09:01:44;;;;;;;10.17;9.10;;;19.20;99.90;;;;;;5119407;28;20152;-81
2022/05/09 09:04:23;;;;;;;10.93;9.40;;;18.70;99.90;;;;;;5100973;28;20205;-82
2022/05/09 09:07:28;;;;;;;9.00;8.20;;;18.70;99.90;;;;;;5120742;28;20187;-80
2022/05/09 09:10:32;;;;;;;8.77;7.87;;;19.30;99.90;;;;;;5123804;28;20184;-82
2022/05/09 09:13:23;;;;;;;8.60;7.43;;;19.20;99.90;;;;;;5123220;28;20283;-81
2022/05/09 09:16:22;;;;;;;7.97;6.80;;;19.60;99.90;;;;;;5124169;28;20238;-81
2022/05/09 09:19:06;;;;;;;9.37;7.77;;;19.60;99.90;;;;;;5104411;28;20654;-81
2022/05/09 09:21:44;;;;;;;8.67;7.80;;;19.70;99.90;;;;;;5105851;28;20209;-79
2022/05/09 09:24:21;;;;;;;8.20;7.50;;;20.10;99.90;;;;;;5123276;28;20220;-79
2022/05/09 09:27:12;;;;;;;8.67;7.33;;;20.30;99.90;;;;;;5103214;28;20274;-79
2022/05/09 09:29:46;;;;;;;10.47;7.33;;;20.20;99.90;;;;;;5122787;28;20644;-79
2022/05/09 09:32:18;;;;;;;7.13;6.43;;;20.20;99.90;;;;;;5122903;28;20184;-80
2022/05/09 09:34:58;;;;;;;8.60;6.43;;;20.20;99.90;;;;;;5105180;28;20214;-80
2022/05/09 09:37:36;;;;;;;7.47;6.77;;;20.70;99.90;;;;;;5121063;28;20219;-80
2022/05/09 09:40:05;;;;;;;6.50;5.90;;;20.50;99.90;;;;;;5122170;28;20159;-81
2022/05/09 09:42:30;;;;;;;7.23;6.63;;;20.50;99.90;;;;;;5123759;28;20225;-80
2022/05/09 09:44:58;;;;;;;6.73;5.60;;;20.60;99.90;;;;;;5126962;28;20171;-82
2022/05/09 09:47:26;;;;;;;6.90;5.70;;;20.70;99.90;;;;;;5110215;28;20179;-81
2022/05/09 09:50:16;;;;;;;6.50;6.00;;;20.90;99.90;;;;;;5108369;28;20227;-82
2022/05/09 09:52:53;;;;;;;5.87;5.37;;;21.40;99.90;;;;;;5110129;28;20207;-82
2022/05/09 09:55:30;;;;;;;7.30;6.20;;;21.40;99.90;;;;;;5115403;28;20190;-82
2022/05/09 09:57:58;;;;;;;6.33;5.73;;;21.20;99.90;;;;;;5121391;27;20182;-81
2022/05/09 10:00:26;;;;;;;6.93;6.00;;;21.00;99.90;;;;;;5142808;27;20528;-81
2022/05/09 10:02:54;;;;;;;6.63;5.93;;;20.50;99.90;;;;;;5126256;27;20230;-80
2022/05/09 10:05:33;;;;;;;6.33;5.73;;;20.50;99.90;;;;;;5101923;28;20187;-80
2022/05/09 10:08:16;;;;;;;8.23;5.37;;;20.70;99.90;;;;;;5118597;28;20206;-80
2022/05/09 10:10:59;;;;;;;6.73;5.37;;;21.20;99.90;;;;;;5099396;28;20176;-86
2022/05/09 10:13:36;;;;;;;5.77;5.27;;;21.20;99.90;;;;;;5099471;28;20215;-80
2022/05/09 10:16:11;;;;;;;5.97;5.37;;;20.90;99.90;;;;;;5085014;28;20180;-82
2022/05/09 10:18:37;;;;;;;6.57;5.87;;;20.90;99.90;;;;;;5119128;28;20171;-82
2022/05/09 10:26:57;;;;;;;5.37;4.87;;;21.10;99.90;;;;;;5108931;28;20197;-81
2022/05/09 10:29:27;;;;;;;6.00;5.10;;;21.10;99.90;;;;;;5079278;28;20186;-79
2022/05/09 10:31:57;;;;;;;5.00;4.40;;;21.30;99.90;;;;;;5096965;28;20176;-80
2022/05/09 10:34:32;;;;;;;6.60;5.10;;;21.70;99.90;;;;;;5097017;28;20198;-81
2022/05/09 10:37:20;;;;;;;5.60;5.00;;;22.30;99.90;;;;;;5108679;28;20228;-82
2022/05/09 10:39:59;;;;;;;9.33;5.40;;;22.10;99.90;;;;;;5098776;28;20188;-79
2022/05/09 10:42:34;;;;;;;7.07;5.67;;;22.00;99.90;;;;;;5078365;28;20181;-79
2022/05/09 10:45:12;;;;;;;4.47;4.07;;;22.20;99.90;;;;;;5096834;28;20202;-79
2022/05/09 10:47:56;;;;;;;5.17;4.17;;;22.50;99.90;;;;;;5096377;28;20157;-79
2022/05/09 10:50:35;;;;;;;4.60;4.20;;;22.80;99.90;;;;;;5097529;28;20177;-79
2022/05/09 10:53:30;;;;;;;5.57;4.37;;;22.90;99.90;;;;;;5114763;28;20199;-79
2022/05/09 10:56:24;;;;;;;4.80;4.40;;;23.20;99.90;;;;;;5117956;28;20202;-79
2022/05/09 10:58:59;;;;;;;9.57;4.90;;;23.20;99.90;;;;;;5093816;28;20190;-81
2022/05/09 11:01:31;;;;;;;5.97;4.57;;;23.10;99.90;;;;;;5098165;28;20163;-80
2022/05/09 11:03:56;;;;;;;5.87;4.47;;;23.50;99.90;;;;;;5115461;28;20211;-79
2022/05/09 11:06:46;;;;;;;5.17;4.60;;;23.80;99.90;;;;;;5116102;28;20225;-80
2022/05/09 11:09:26;;;;;;;6.37;5.07;;;24.10;99.90;;;;;;5119353;28;20160;-78
2022/05/09 11:11:52;;;;;;;5.70;5.07;;;23.80;99.90;;;;;;5117711;28;20176;-79
2022/05/09 11:14:39;;;;;;;5.40;4.53;;;23.40;99.90;;;;;;5117033;28;20235;-79
2022/05/09 11:17:13;;;;;;;5.63;5.13;;;22.80;99.90;;;;;;5107659;28;20184;-80
2022/05/09 11:19:58;;;;;;;4.37;3.97;;;22.80;99.90;;;;;;5098685;28;20177;-79
2022/05/09 11:22:55;;;;;;;4.73;4.33;;;23.10;99.90;;;;;;5100035;28;20177;-83
2022/05/09 11:25:46;;;;;;;5.73;4.50;;;23.00;99.90;;;;;;5069056;28;20196;-81
2022/05/09 11:28:36;;;;;;;4.50;4.10;;;23.60;99.90;;;;;;5121676;28;20217;-80
2022/05/09 11:31:08;;;;;;;6.27;5.20;;;23.90;99.90;;;;;;5104265;28;20197;-80
2022/05/09 11:33:44;;;;;;;5.60;4.50;;;23.30;99.90;;;;;;5104985;28;20568;-80
2022/05/09 11:36:32;;;;;;;4.70;4.30;;;23.40;99.90;;;;;;5105853;28;20233;-80
2022/05/09 11:39:17;;;;;;;12.13;4.10;;;24.00;99.90;;;;;;5110342;28;20155;-79
2022/05/09 11:41:45;;;;;;;5.30;4.80;;;24.60;99.90;;;;;;5130035;28;20177;-78
2022/05/09 11:44:21;;;;;;;6.43;5.17;;;24.90;99.90;;;;;;5131843;28;20195;-79
2022/05/09 11:46:50;;;;;;;4.63;4.00;;;25.00;98.40;;;;;;5116693;28;20217;-80
2022/05/09 11:49:44;;;;;;;6.00;3.80;;;25.20;98.30;;;;;;5114389;28;20230;-76
2022/05/09 11:52:28;;;;;;;3.97;3.67;;;25.60;96.40;;;;;;5113999;28;20171;-76
2022/05/09 11:55:20;;;;;;;6.43;4.20;;;25.70;95.40;;;;;;5114569;28;20641;-79
2022/05/09 11:57:59;;;;;;;6.67;4.33;;;25.90;94.50;;;;;;5094796;28;20188;-77
2022/05/09 12:00:30;;;;;;;5.93;3.90;;;25.90;94.30;;;;;;5106807;28;20180;-78
2022/05/09 12:03:01;;;;;;;4.50;3.40;;;25.70;91.80;;;;;;5106481;28;20206;-77
2022/05/09 12:05:26;;;;;;;4.37;3.77;;;25.40;93.20;;;;;;5115410;28;20546;-77
2022/05/09 12:08:03;;;;;;;4.33;3.93;;;25.50;92.80;;;;;;5130667;27;20180;-78
2022/05/09 12:10:32;;;;;;;6.00;4.20;;;25.80;93.80;;;;;;5136397;27;20164;-75
2022/05/09 12:13:00;;;;;;;4.77;4.17;;;26.30;91.20;;;;;;5136295;27;20693;-75
2022/05/09 12:15:29;;;;;;;4.53;4.10;;;26.20;92.20;;;;;;5137361;27;20175;-77
2022/05/09 12:17:54;;;;;;;3.83;3.43;;;25.50;91.20;;;;;;5119484;27;20224;-77
2022/05/09 12:20:27;;;;;;;5.90;3.93;;;25.50;93.10;;;;;;5137497;27;20565;-77
2022/05/09 12:22:59;;;;;;;6.97;3.93;;;26.00;91.50;;;;;;5137729;27;20194;-77
2022/05/09 12:25:34;;;;;;;6.80;3.80;;;26.50;90.60;;;;;;5137871;27;20210;-78
2022/05/09 12:28:18;;;;;;;3.97;3.60;;;26.50;88.20;;;;;;5137763;27;20223;-77
2022/05/09 12:30:45;;;;;;;4.40;3.93;;;27.00;88.70;;;;;;5118894;27;20642;-77
2022/05/09 12:33:17;;;;;;;3.47;3.20;;;26.60;85.70;;;;;;5137283;27;20184;-77
2022/05/09 12:35:44;;;;;;;6.03;3.73;;;26.40;86.80;;;;;;5137363;27;20171;-77
2022/05/09 12:38:12;;;;;;;5.07;3.20;;;26.60;87.20;;;;;;5119006;27;20177;-77
2022/05/09 12:40:37;;;;;;;3.80;3.50;;;27.20;84.40;;;;;;5137065;27;20705;-77
2022/05/09 12:43:04;;;;;;;5.40;3.30;;;27.10;85.10;;;;;;5137065;27;20192;-77
2022/05/09 12:45:31;;;;;;;3.83;3.50;;;26.50;86.10;;;;;;5119024;27;20180;-77
2022/05/09 12:47:59;;;;;;;5.03;3.17;;;26.50;82.10;;;;;;5137492;27;20173;-77
2022/05/09 12:50:30;;;;;;;4.60;3.30;;;26.50;82.00;;;;;;5137040;27;20653;-77
2022/05/09 12:53:00;;;;;;;5.67;3.73;;;26.90;83.60;;;;;;5137298;27;20217;-77
2022/05/09 12:58:34;;;;;;;5.47;3.60;;;26.20;82.40;;;;;;5137526;27;20195;-77
2022/05/09 13:01:14;;;;;;;3.70;3.40;;;26.20;83.10;;;;;;5118273;27;20222;-77
2022/05/09 13:03:54;;;;;;;6.63;3.20;;;26.00;82.30;;;;;;5113792;28;20200;-78
2022/05/09 13:06:27;;;;;;;6.93;3.23;;;26.10;82.40;;;;;;5085526;28;20182;-79
2022/05/09 13:08:53;;;;;;;4.23;3.80;;;26.20;86.40;;;;;;5101403;28;20176;-78
2022/05/09 13:11:33;;;;;;;4.87;3.30;;;26.60;79.90;;;;;;5108285;27;20230;-78
2022/05/09 13:14:11;;;;;;;4.13;3.67;;;26.60;81.70;;;;;;5085142;28;20216;-77
2022/05/09 13:16:41;;;;;;;4.70;3.40;;;26.50;79.70;;;;;;5076449;28;20197;-78
2022/05/09 13:19:14;;;;;;;3.27;2.90;;;27.10;78.20;;;;;;5102389;28;20265;-77
2022/05/09 13:21:41;;;;;;;5.97;4.03;;;27.20;80.10;;;;;;5122405;27;20185;-77
2022/05/09 13:24:14;;;;;;;3.87;3.57;;;26.90;79.50;;;;;;5137551;27;20186;-77
2022/05/09 13:26:48;;;;;;;4.97;3.20;;;26.60;77.10;;;;;;5137801;27;20156;-77
2022/05/09 13:29:32;;;;;;;6.80;3.80;;;26.60;79.10;;;;;;5115007;27;20179;-77
2022/05/09 13:31:58;;;;;;;4.00;3.70;;;26.30;78.00;;;;;;5096566;28;20184;-77
2022/05/09 13:34:30;;;;;;;4.27;3.87;;;24.80;84.00;;;;;;5078162;28;20199;-77
2022/05/09 13:36:55;;;;;;;7.20;4.07;;;23.80;85.50;;;;;;5079534;28;20211;-79
2022/05/09 13:39:25;;;;;;;4.43;4.03;;;23.20;88.30;;;;;;5082561;28;20273;-81
2022/05/09 13:41:52;;;;;;;5.97;3.90;;;22.40;87.70;;;;;;5110325;28;20175;-79
2022/05/09 13:44:21;;;;;;;5.63;4.03;;;21.70;90.30;;;;;;5083158;28;20225;-81
2022/05/09 13:46:49;;;;;;;4.27;3.87;;;21.30;90.50;;;;;;5081075;28;20183;-82
2022/05/09 13:49:18;;;;;;;4.30;3.70;;;21.70;92.40;;;;;;5097296;28;20211;-81
2022/05/09 13:52:09;;;;;;;5.00;4.10;;;23.40;89.80;;;;;;5079320;28;20226;-79
2022/05/09 13:54:46;;;;;;;6.97;3.97;;;24.80;86.10;;;;;;5090784;28;20203;-78
2022/05/09 13:57:25;;;;;;;7.00;3.80;;;26.10;83.70;;;;;;5115857;28;20180;-79
2022/05/09 14:00:11;;;;;;;4.20;3.50;;;26.40;77.50;;;;;;5114675;28;20232;-79
2022/05/09 14:02:39;;;;;;;8.00;3.97;;;25.10;77.80;;;;;;5098895;28;20196;-80
2022/05/09 14:05:13;;;;;;;5.30;3.30;;;25.20;83.60;;;;;;5110974;28;20176;-79
2022/05/09 14:07:43;;;;;;;4.47;3.80;;;25.50;79.40;;;;;;5096627;28;20147;-80
2022/05/09 14:10:29;;;;;;;5.40;3.77;;;25.20;79.60;;;;;;5097602;28;20158;-81
2022/05/09 14:12:57;;;;;;;4.87;3.93;;;24.20;81.10;;;;;;5082717;28;20684;-80
2022/05/09 14:15:27;;;;;;;5.70;4.07;;;22.90;85.00;;;;;;5106764;28;20230;-80
2022/05/09 14:18:07;;;;;;;4.37;4.00;;;23.80;87.00;;;;;;5104357;28;20176;-81
2022/05/09 14:20:36;;;;;;;5.30;3.83;;;25.00;85.10;;;;;;5106925;28;20185;-81
2022/05/09 14:23:04;;;;;;;4.97;4.00;;;25.90;81.50;;;;;;5124399;28;20226;-81
2022/05/09 14:31:41;;;;;;;6.03;3.80;;;23.30;85.00;;;;;;5115268;27;20189;-81
2022/05/09 14:34:36;;;;;;;4.47;3.93;;;22.60;85.40;;;;;;5095014;28;20609;-79
2022/05/09 14:37:25;;;;;;;4.37;3.97;;;23.60;89.80;;;;;;5113591;28;20200;-77
2022/05/09 14:40:06;;;;;;;5.10;4.60;;;24.80;85.50;;;;;;5097727;28;20172;-77
2022/05/09 14:42:33;;;;;;;6.03;4.07;;;25.40;83.30;;;;;;5097392;28;20172;-78
2022/05/09 14:45:02;;;;;;;7.13;3.70;;;25.70;81.70;;;;;;5114181;28;20239;-79
2022/05/09 14:47:50;;;;;;;6.47;3.97;;;25.90;81.00;;;;;;5097214;28;20174;-78
2022/05/09 14:50:32;;;;;;;5.43;3.80;;;24.70;79.20;;;;;;5120746;28;20212;-78
2022/05/09 14:53:26;;;;;;;4.00;3.60;;;23.10;82.00;;;;;;5080829;28;20208;-78
2022/05/09 14:59:23;;;;;;;4.07;3.67;;;21.00;89.00;;;;;;5140103;27;20509;-78
2022/05/09 15:02:25;;;;;;;5.90;3.70;;;21.20;85.80;;;;;;5109370;28;20186;-78
2022/05/09 15:04:53;;;;;;;6.33;3.70;;;21.30;86.90;;;;;;5021498;28;20585;-79
2022/05/09 15:07:20;;;;;;;6.93;4.03;;;22.20;86.50;;;;;;5105619;27;20187;-79
2022/05/09 15:09:48;;;;;;;6.90;4.17;;;23.30;85.10;;;;;;5147766;27;20193;-78
2022/05/09 15:12:20;;;;;;;7.27;4.60;;;22.10;88.00;;;;;;5130118;28;20182;-79
2022/05/09 15:14:46;;;;;;;9.10;4.37;;;22.10;88.60;;;;;;5126477;28;20170;-83
2022/05/09 15:17:12;;;;;;;5.77;3.60;;;21.40;86.60;;;;;;5108690;28;20522;-80
2022/05/09 15:19:37;;;;;;;7.77;4.23;;;21.90;90.50;;;;;;5121220;28;20175;-79
2022/05/09 15:22:04;;;;;;;4.57;3.80;;;23.30;84.90;;;;;;5099695;28;20190;-79
2022/05/09 15:24:30;;;;;;;4.93;3.93;;;24.40;81.60;;;;;;5100454;28;20212;-79
2022/05/09 15:26:55;;;;;;;4.97;3.87;;;25.00;80.60;;;;;;5116712;28;20179;-78
2022/05/09 15:29:21;;;;;;;6.00;4.17;;;25.40;78.40;;;;;;5099061;28;20183;-79
2022/05/09 15:31:50;;;;;;;7.50;4.10;;;25.50;79.90;;;;;;5114848;28;20175;-81
2022/05/09 15:34:15;;;;;;;17.27;4.37;;;25.50;80.70;;;;;;5095828;28;20199;-80
2022/05/09 15:36:44;;;;;;;3.83;3.53;;;25.70;79.00;;;;;;5126050;27;20270;-81
2022/05/09 15:39:10;;;;;;;5.33;3.63;;;25.70;79.30;;;;;;5123923;27;20275;-78
2022/05/09 15:41:37;;;;;;;6.70;3.67;;;25.40;76.90;;;;;;5140998;27;20175;-77
2022/05/09 15:44:11;;;;;;;4.27;3.20;;;24.50;76.40;;;;;;5108019;27;20257;-77
2022/05/09 15:46:40;;;;;;;4.63;3.83;;;23.00;79.70;;;;;;5099473;28;20153;-79
2022/05/09 15:49:11;;;;;;;5.20;3.87;;;22.10;82.90;;;;;;5083693;28;20669;-79
2022/05/09 15:51:37;;;;;;;5.93;3.80;;;21.30;85.70;;;;;;5100387;28;20235;-78
2022/05/09 15:54:04;;;;;;;4.80;3.87;;;21.40;87.20;;;;;;5100334;28;20184;-79
2022/05/09 15:56:32;;;;;;;5.57;4.37;;;21.50;88.00;;;;;;5114910;28;20180;-82
2022/05/09 15:59:01;;;;;;;4.13;3.73;;;21.70;89.30;;;;;;5113316;27;20191;-84
2022/05/09 16:01:30;;;;;;;4.17;3.73;;;22.50;86.80;;;;;;5104043;28;20590;-81
2022/05/09 16:03:56;;;;;;;4.73;4.00;;;23.50;82.10;;;;;;5102654;28;20195;-80
2022/05/09 16:11:51;;;;;;;4.60;4.07;;;23.60;82.60;;;;;;5139805;27;20192;-80
2022/05/09 16:14:20;;;;;;;5.87;4.00;;;22.50;84.50;;;;;;5140680;27;20259;-81
2022/05/09 16:16:52;;;;;;;6.07;4.57;;;22.00;87.60;;;;;;5105632;28;20207;-80
2022/05/09 16:19:25;;;;;;;5.80;4.83;;;21.20;90.50;;;;;;5100636;28;20164;-81
2022/05/09 16:21:50;;;;;;;6.47;4.27;;;20.70;90.50;;;;;;5082432;28;20199;-80
2022/05/09 16:24:19;;;;;;;9.37;4.57;;;20.30;91.00;;;;;;5137092;27;20656;-83
2022/05/09 16:26:46;;;;;;;4.50;4.10;;;20.00;92.00;;;;;;5109912;28;20243;-84
2022/05/09 16:29:14;;;;;;;5.03;4.53;;;19.80;92.60;;;;;;5121609;28;20191;-81
2022/05/09 16:31:41;;;;;;;8.87;5.20;;;19.70;93.10;;;;;;5115600;28;20256;-82
2022/05/09 16:34:30;;;;;;;5.67;4.20;;;19.60;93.50;;;;;;5081881;28;20228;-81
2022/05/09 16:37:02;;;;;;;5.17;4.70;;;19.50;94.10;;;;;;5081534;28;20309;-82
2022/05/09 16:39:39;;;;;;;5.00;4.27;;;19.50;92.90;;;;;;5081624;28;20184;-81
2022/05/09 16:42:17;;;;;;;5.70;4.73;;;19.40;93.40;;;;;;5082654;28;20182;-80
2022/05/09 16:44:53;;;;;;;7.43;4.30;;;19.30;91.80;;;;;;5081541;28;20193;-81
2022/05/09 16:47:19;;;;;;;5.20;4.70;;;19.30;92.40;;;;;;5099899;28;20154;-80
2022/05/09 16:49:45;;;;;;;7.90;4.77;;;19.10;92.80;;;;;;5100107;28;20176;-80
2022/05/09 16:52:10;;;;;;;8.70;5.00;;;19.00;93.20;;;;;;5100930;28;20197;-80
2022/05/09 16:54:36;;;;;;;7.23;5.20;;;18.90;93.40;;;;;;5107652;28;20203;-80
2022/05/09 16:57:02;;;;;;;7.57;4.73;;;19.00;93.90;;;;;;5102345;28;20187;-80
2022/05/09 16:59:31;;;;;;;6.53;5.57;;;18.90;94.00;;;;;;5104800;28;20703;-80
2022/05/09 17:01:57;;;;;;;7.00;4.73;;;18.80;94.30;;;;;;5104005;28;20192;-80
2022/05/09 17:04:22;;;;;;;8.07;5.53;;;18.80;94.30;;;;;;5102132;28;20219;-80
2022/05/09 17:06:48;;;;;;;7.27;5.33;;;18.80;94.70;;;;;;5098808;28;20188;-80
2022/05/09 17:09:14;;;;;;;5.50;4.73;;;18.80;95.10;;;;;;5082441;28;20267;-81
2022/05/09 17:11:40;;;;;;;7.57;6.53;;;18.70;94.70;;;;;;5101355;28;20685;-83
2022/05/09 17:14:08;;;;;;;10.80;8.23;;;18.70;95.00;;;;;;5100393;28;20251;-83